sensor_id;sensor_type;location;lat;lon;timestamp;P1;durP1;ratioP1;P2;durP2;ratioP2
61572;SDS011;47465;43.094;12.434;2023-10-09T00:01:53;11.05;;;5.65;;
61572;SDS011;47465;43.094;12.434;2023-10-09T00:04:24;12.25;;;5.90;;
61572;SDS011;47465;43.094;12.434;2023-10-09T00:06:50;11.70;;;6.70;;
61572;SDS011;47465;43.094;12.434;2023-10-09T00:09:16;11.77;;;5.85;;
61572;SDS011;47465;43.094;12.434;2023-10-09T00:12:10;13.52;;;6.93;;
61572;SDS011;47465;43.094;12.434;2023-10-09T00:14:36;10.07;;;5.72;;
61572;SDS011;47465;43.094;12.434;2023-10-09T00:17:04;14.00;;;6.47;;
61572;SDS011;47465;43.094;12.434;2023-10-09T00:19:51;13.65;;;6.32;;
61572;SDS011;47465;43.094;12.434;2023-10-09T00:22:25;12.13;;;6.13;;
61572;SDS011;47465;43.094;12.434;2023-10-09T00:24:53;10.98;;;5.80;;
61572;SDS011;47465;43.094;12.434;2023-10-09T00:27:53;10.73;;;6.22;;
61572;SDS011;47465;43.094;12.434;2023-10-09T00:30:20;10.82;;;5.72;;
61572;SDS011;47465;43.094;12.434;2023-10-09T00:32:47;11.10;;;5.72;;
61572;SDS011;47465;43.094;12.434;2023-10-09T00:35:24;11.07;;;5.80;;
61572;SDS011;47465;43.094;12.434;2023-10-09T00:38:24;13.27;;;6.82;;
61572;SDS011;47465;43.094;12.434;2023-10-09T00:40:58;10.65;;;5.80;;
61572;SDS011;47465;43.094;12.434;2023-10-09T00:43:52;12.02;;;6.00;;
61572;SDS011;47465;43.094;12.434;2023-10-09T00:46:18;11.68;;;5.75;;
61572;SDS011;47465;43.094;12.434;2023-10-09T00:49:04;11.75;;;7.15;;
61572;SDS011;47465;43.094;12.434;2023-10-09T00:51:38;13.00;;;7.35;;
61572;SDS011;47465;43.094;12.434;2023-10-09T00:54:21;10.57;;;6.80;;
61572;SDS011;47465;43.094;12.434;2023-10-09T00:56:54;13.15;;;7.15;;
61572;SDS011;47465;43.094;12.434;2023-10-09T00:59:24;11.38;;;7.03;;
61572;SDS011;47465;43.094;12.434;2023-10-09T01:01:54;15.90;;;7.40;;
61572;SDS011;47465;43.094;12.434;2023-10-09T01:04:54;9.23;;;5.90;;
61572;SDS011;47465;43.094;12.434;2023-10-09T01:07:20;11.68;;;5.80;;
61572;SDS011;47465;43.094;12.434;2023-10-09T01:09:51;11.18;;;5.72;;
61572;SDS011;47465;43.094;12.434;2023-10-09T01:12:19;12.82;;;6.25;;
61572;SDS011;47465;43.094;12.434;2023-10-09T01:14:46;12.63;;;6.13;;
61572;SDS011;47465;43.094;12.434;2023-10-09T01:17:21;12.30;;;6.15;;
61572;SDS011;47465;43.094;12.434;2023-10-09T01:20:02;12.60;;;5.88;;
61572;SDS011;47465;43.094;12.434;2023-10-09T01:24:57;12.93;;;5.43;;
61572;SDS011;47465;43.094;12.434;2023-10-09T01:27:23;13.02;;;5.80;;
61572;SDS011;47465;43.094;12.434;2023-10-09T01:29:57;13.63;;;6.68;;
61572;SDS011;47465;43.094;12.434;2023-10-09T01:32:24;12.23;;;6.28;;
61572;SDS011;47465;43.094;12.434;2023-10-09T01:34:54;9.90;;;5.65;;
61572;SDS011;47465;43.094;12.434;2023-10-09T01:37:26;11.95;;;5.80;;
61572;SDS011;47465;43.094;12.434;2023-10-09T01:39:55;12.00;;;6.22;;
61572;SDS011;47465;43.094;12.434;2023-10-09T01:45:02;12.15;;;5.85;;
61572;SDS011;47465;43.094;12.434;2023-10-09T01:47:36;10.75;;;5.60;;
61572;SDS011;47465;43.094;12.434;2023-10-09T01:50:04;12.02;;;5.85;;
61572;SDS011;47465;43.094;12.434;2023-10-09T01:52:37;10.80;;;5.88;;
61572;SDS011;47465;43.094;12.434;2023-10-09T01:55:05;14.70;;;6.18;;
61572;SDS011;47465;43.094;12.434;2023-10-09T01:57:34;13.73;;;6.38;;
61572;SDS011;47465;43.094;12.434;2023-10-09T02:00:05;14.70;;;5.95;;
61572;SDS011;47465;43.094;12.434;2023-10-09T02:02:32;13.30;;;7.15;;
61572;SDS011;47465;43.094;12.434;2023-10-09T02:04:59;13.88;;;7.15;;
61572;SDS011;47465;43.094;12.434;2023-10-09T02:08:01;14.82;;;6.28;;
61572;SDS011;47465;43.094;12.434;2023-10-09T02:10:29;12.40;;;6.78;;
61572;SDS011;47465;43.094;12.434;2023-10-09T02:13:14;12.13;;;6.65;;
61572;SDS011;47465;43.094;12.434;2023-10-09T02:15:42;12.82;;;6.97;;
61572;SDS011;47465;43.094;12.434;2023-10-09T02:18:27;14.07;;;6.45;;
61572;SDS011;47465;43.094;12.434;2023-10-09T02:21:18;13.20;;;7.35;;
61572;SDS011;47465;43.094;12.434;2023-10-09T02:23:58;12.38;;;7.55;;
61572;SDS011;47465;43.094;12.434;2023-10-09T02:26:28;11.73;;;7.60;;
61572;SDS011;47465;43.094;12.434;2023-10-09T02:29:14;11.68;;;5.97;;
61572;SDS011;47465;43.094;12.434;2023-10-09T02:31:45;12.10;;;6.35;;
61572;SDS011;47465;43.094;12.434;2023-10-09T02:34:16;12.13;;;6.68;;
61572;SDS011;47465;43.094;12.434;2023-10-09T02:36:48;17.08;;;7.35;;
61572;SDS011;47465;43.094;12.434;2023-10-09T02:39:14;14.60;;;7.15;;
61572;SDS011;47465;43.094;12.434;2023-10-09T02:42:14;12.98;;;6.50;;
61572;SDS011;47465;43.094;12.434;2023-10-09T02:44:58;15.07;;;6.43;;
61572;SDS011;47465;43.094;12.434;2023-10-09T02:47:25;15.23;;;6.93;;
61572;SDS011;47465;43.094;12.434;2023-10-09T02:49:56;11.70;;;6.57;;
61572;SDS011;47465;43.094;12.434;2023-10-09T02:52:55;12.45;;;6.90;;
61572;SDS011;47465;43.094;12.434;2023-10-09T02:55:34;12.70;;;7.63;;
61572;SDS011;47465;43.094;12.434;2023-10-09T02:58:04;13.18;;;7.63;;
61572;SDS011;47465;43.094;12.434;2023-10-09T03:00:31;13.27;;;7.00;;
61572;SDS011;47465;43.094;12.434;2023-10-09T03:03:01;12.60;;;7.60;;
61572;SDS011;47465;43.094;12.434;2023-10-09T03:05:31;10.35;;;6.13;;
61572;SDS011;47465;43.094;12.434;2023-10-09T03:07:59;10.98;;;7.28;;
61572;SDS011;47465;43.094;12.434;2023-10-09T03:10:25;15.00;;;7.70;;
61572;SDS011;47465;43.094;12.434;2023-10-09T03:12:51;11.43;;;7.00;;
61572;SDS011;47465;43.094;12.434;2023-10-09T03:15:18;12.40;;;6.82;;
61572;SDS011;47465;43.094;12.434;2023-10-09T03:17:45;14.65;;;7.97;;
61572;SDS011;47465;43.094;12.434;2023-10-09T03:20:13;13.30;;;7.30;;
61572;SDS011;47465;43.094;12.434;2023-10-09T03:22:42;12.25;;;7.22;;
61572;SDS011;47465;43.094;12.434;2023-10-09T03:25:11;15.70;;;6.90;;
61572;SDS011;47465;43.094;12.434;2023-10-09T03:27:38;10.48;;;6.45;;
61572;SDS011;47465;43.094;12.434;2023-10-09T03:30:08;14.80;;;7.68;;
61572;SDS011;47465;43.094;12.434;2023-10-09T03:32:35;12.45;;;7.32;;
61572;SDS011;47465;43.094;12.434;2023-10-09T03:35:01;15.52;;;7.30;;
61572;SDS011;47465;43.094;12.434;2023-10-09T03:37:28;12.68;;;6.95;;
61572;SDS011;47465;43.094;12.434;2023-10-09T03:40:01;11.45;;;7.07;;
61572;SDS011;47465;43.094;12.434;2023-10-09T03:42:30;14.45;;;8.63;;
61572;SDS011;47465;43.094;12.434;2023-10-09T03:44:58;12.93;;;6.88;;
61572;SDS011;47465;43.094;12.434;2023-10-09T03:47:27;12.40;;;7.72;;
61572;SDS011;47465;43.094;12.434;2023-10-09T03:49:53;13.57;;;8.05;;
61572;SDS011;47465;43.094;12.434;2023-10-09T03:52:19;14.55;;;7.75;;
61572;SDS011;47465;43.094;12.434;2023-10-09T03:54:45;13.25;;;6.25;;
61572;SDS011;47465;43.094;12.434;2023-10-09T03:57:11;13.30;;;7.32;;
61572;SDS011;47465;43.094;12.434;2023-10-09T03:59:45;12.93;;;7.47;;
61572;SDS011;47465;43.094;12.434;2023-10-09T04:02:12;13.55;;;7.32;;
61572;SDS011;47465;43.094;12.434;2023-10-09T04:04:38;12.65;;;6.35;;
61572;SDS011;47465;43.094;12.434;2023-10-09T04:07:04;14.60;;;8.55;;
61572;SDS011;47465;43.094;12.434;2023-10-09T04:09:32;12.15;;;6.95;;
61572;SDS011;47465;43.094;12.434;2023-10-09T04:12:04;13.52;;;7.75;;
61572;SDS011;47465;43.094;12.434;2023-10-09T04:14:46;13.27;;;6.40;;
61572;SDS011;47465;43.094;12.434;2023-10-09T04:17:20;15.25;;;8.50;;
61572;SDS011;47465;43.094;12.434;2023-10-09T04:20:20;13.25;;;6.05;;
61572;SDS011;47465;43.094;12.434;2023-10-09T04:23:00;16.17;;;7.38;;
61572;SDS011;47465;43.094;12.434;2023-10-09T04:25:31;14.43;;;6.93;;
61572;SDS011;47465;43.094;12.434;2023-10-09T04:28:31;14.18;;;6.72;;
61572;SDS011;47465;43.094;12.434;2023-10-09T04:30:58;12.48;;;6.32;;
61572;SDS011;47465;43.094;12.434;2023-10-09T04:33:28;12.32;;;6.05;;
61572;SDS011;47465;43.094;12.434;2023-10-09T04:36:06;12.18;;;6.32;;
61572;SDS011;47465;43.094;12.434;2023-10-09T04:39:07;12.93;;;7.55;;
61572;SDS011;47465;43.094;12.434;2023-10-09T04:41:52;10.63;;;6.03;;
61572;SDS011;47465;43.094;12.434;2023-10-09T04:44:18;13.80;;;7.00;;
61572;SDS011;47465;43.094;12.434;2023-10-09T04:46:44;13.38;;;6.97;;
61572;SDS011;47465;43.094;12.434;2023-10-09T04:49:10;12.32;;;6.05;;
61572;SDS011;47465;43.094;12.434;2023-10-09T04:52:09;17.00;;;7.43;;
61572;SDS011;47465;43.094;12.434;2023-10-09T04:54:43;11.68;;;6.40;;
61572;SDS011;47465;43.094;12.434;2023-10-09T04:57:29;10.98;;;6.15;;
61572;SDS011;47465;43.094;12.434;2023-10-09T05:00:03;15.77;;;6.93;;
61572;SDS011;47465;43.094;12.434;2023-10-09T05:02:33;18.08;;;6.75;;
61572;SDS011;47465;43.094;12.434;2023-10-09T05:05:02;13.10;;;6.18;;
61572;SDS011;47465;43.094;12.434;2023-10-09T05:08:04;12.55;;;6.25;;
61572;SDS011;47465;43.094;12.434;2023-10-09T05:10:45;13.35;;;6.65;;
61572;SDS011;47465;43.094;12.434;2023-10-09T05:13:31;15.95;;;7.15;;
61572;SDS011;47465;43.094;12.434;2023-10-09T05:16:30;15.70;;;7.55;;
61572;SDS011;47465;43.094;12.434;2023-10-09T05:21:25;11.98;;;7.35;;
61572;SDS011;47465;43.094;12.434;2023-10-09T05:24:15;14.88;;;6.80;;
61572;SDS011;47465;43.094;12.434;2023-10-09T05:26:45;15.65;;;6.50;;
61572;SDS011;47465;43.094;12.434;2023-10-09T05:29:33;13.88;;;6.63;;
61572;SDS011;47465;43.094;12.434;2023-10-09T05:32:16;14.73;;;7.35;;
61572;SDS011;47465;43.094;12.434;2023-10-09T05:34:53;15.35;;;7.20;;
61572;SDS011;47465;43.094;12.434;2023-10-09T05:37:44;13.30;;;6.60;;
61572;SDS011;47465;43.094;12.434;2023-10-09T05:40:12;13.93;;;6.43;;
61572;SDS011;47465;43.094;12.434;2023-10-09T05:42:55;14.73;;;6.78;;
61572;SDS011;47465;43.094;12.434;2023-10-09T05:45:24;15.32;;;6.90;;
61572;SDS011;47465;43.094;12.434;2023-10-09T05:48:21;14.50;;;6.90;;
61572;SDS011;47465;43.094;12.434;2023-10-09T05:51:02;15.57;;;7.07;;
61572;SDS011;47465;43.094;12.434;2023-10-09T05:53:37;14.73;;;6.65;;
61572;SDS011;47465;43.094;12.434;2023-10-09T05:56:28;13.63;;;6.90;;
61572;SDS011;47465;43.094;12.434;2023-10-09T05:59:12;14.00;;;6.32;;
61572;SDS011;47465;43.094;12.434;2023-10-09T06:02:12;14.48;;;6.60;;
61572;SDS011;47465;43.094;12.434;2023-10-09T06:05:09;16.85;;;7.53;;
61572;SDS011;47465;43.094;12.434;2023-10-09T06:07:55;14.55;;;6.82;;
61572;SDS011;47465;43.094;12.434;2023-10-09T06:10:55;14.00;;;7.18;;
61572;SDS011;47465;43.094;12.434;2023-10-09T06:13:51;15.73;;;8.20;;
61572;SDS011;47465;43.094;12.434;2023-10-09T06:16:28;16.05;;;8.60;;
61572;SDS011;47465;43.094;12.434;2023-10-09T06:19:30;20.67;;;9.00;;
61572;SDS011;47465;43.094;12.434;2023-10-09T06:22:06;20.90;;;9.95;;
61572;SDS011;47465;43.094;12.434;2023-10-09T06:25:01;16.15;;;8.98;;
61572;SDS011;47465;43.094;12.434;2023-10-09T06:27:34;18.10;;;8.35;;
61572;SDS011;47465;43.094;12.434;2023-10-09T06:30:19;20.35;;;7.85;;
61572;SDS011;47465;43.094;12.434;2023-10-09T06:33:03;17.40;;;8.25;;
61572;SDS011;47465;43.094;12.434;2023-10-09T06:35:44;18.30;;;8.27;;
61572;SDS011;47465;43.094;12.434;2023-10-09T06:38:19;13.80;;;7.35;;
61572;SDS011;47465;43.094;12.434;2023-10-09T06:40:49;16.52;;;7.43;;
61572;SDS011;47465;43.094;12.434;2023-10-09T06:43:35;14.65;;;7.18;;
61572;SDS011;47465;43.094;12.434;2023-10-09T06:46:14;16.35;;;8.15;;
61572;SDS011;47465;43.094;12.434;2023-10-09T06:49:10;14.73;;;7.88;;
61572;SDS011;47465;43.094;12.434;2023-10-09T06:52:10;15.73;;;7.78;;
61572;SDS011;47465;43.094;12.434;2023-10-09T06:54:41;14.70;;;7.88;;
61572;SDS011;47465;43.094;12.434;2023-10-09T06:57:15;16.50;;;7.57;;
61572;SDS011;47465;43.094;12.434;2023-10-09T07:00:02;15.70;;;7.10;;
61572;SDS011;47465;43.094;12.434;2023-10-09T07:02:48;14.48;;;7.25;;
61572;SDS011;47465;43.094;12.434;2023-10-09T07:05:17;14.65;;;7.43;;
61572;SDS011;47465;43.094;12.434;2023-10-09T07:07:44;16.30;;;8.20;;
61572;SDS011;47465;43.094;12.434;2023-10-09T07:10:22;14.95;;;7.47;;
61572;SDS011;47465;43.094;12.434;2023-10-09T07:12:58;16.65;;;7.50;;
61572;SDS011;47465;43.094;12.434;2023-10-09T07:15:25;15.30;;;7.35;;
61572;SDS011;47465;43.094;12.434;2023-10-09T07:18:10;17.17;;;7.72;;
61572;SDS011;47465;43.094;12.434;2023-10-09T07:20:45;14.45;;;6.72;;
61572;SDS011;47465;43.094;12.434;2023-10-09T07:23:26;11.70;;;6.75;;
61572;SDS011;47465;43.094;12.434;2023-10-09T07:26:02;15.27;;;7.80;;
61572;SDS011;47465;43.094;12.434;2023-10-09T07:28:43;12.73;;;6.07;;
61572;SDS011;47465;43.094;12.434;2023-10-09T07:31:19;12.20;;;6.32;;
61572;SDS011;47465;43.094;12.434;2023-10-09T07:33:54;11.38;;;5.18;;
61572;SDS011;47465;43.094;12.434;2023-10-09T07:36:22;14.38;;;6.32;;
61572;SDS011;47465;43.094;12.434;2023-10-09T07:39:01;14.85;;;6.50;;
61572;SDS011;47465;43.094;12.434;2023-10-09T07:41:31;12.30;;;6.35;;
61572;SDS011;47465;43.094;12.434;2023-10-09T07:44:30;11.15;;;6.40;;
61572;SDS011;47465;43.094;12.434;2023-10-09T07:47:03;13.00;;;6.25;;
61572;SDS011;47465;43.094;12.434;2023-10-09T07:50:04;9.02;;;5.28;;
61572;SDS011;47465;43.094;12.434;2023-10-09T07:52:36;11.85;;;5.90;;
61572;SDS011;47465;43.094;12.434;2023-10-09T07:55:08;11.43;;;6.10;;
61572;SDS011;47465;43.094;12.434;2023-10-09T07:57:51;14.27;;;5.72;;
61572;SDS011;47465;43.094;12.434;2023-10-09T08:00:17;10.80;;;5.68;;
61572;SDS011;47465;43.094;12.434;2023-10-09T08:03:17;14.27;;;7.05;;
61572;SDS011;47465;43.094;12.434;2023-10-09T08:05:51;12.45;;;6.35;;
61572;SDS011;47465;43.094;12.434;2023-10-09T08:08:32;12.02;;;6.13;;
61572;SDS011;47465;43.094;12.434;2023-10-09T08:11:11;12.30;;;7.40;;
61572;SDS011;47465;43.094;12.434;2023-10-09T08:14:12;12.50;;;7.30;;
61572;SDS011;47465;43.094;12.434;2023-10-09T08:19:55;14.45;;;7.78;;
61572;SDS011;47465;43.094;12.434;2023-10-09T08:22:26;16.88;;;8.55;;
61572;SDS011;47465;43.094;12.434;2023-10-09T08:25:08;14.80;;;7.82;;
61572;SDS011;47465;43.094;12.434;2023-10-09T08:27:51;16.17;;;8.07;;
61572;SDS011;47465;43.094;12.434;2023-10-09T08:30:22;14.35;;;7.00;;
61572;SDS011;47465;43.094;12.434;2023-10-09T08:33:10;16.73;;;7.40;;
61572;SDS011;47465;43.094;12.434;2023-10-09T08:35:55;14.18;;;6.70;;
61572;SDS011;47465;43.094;12.434;2023-10-09T08:38:55;14.07;;;6.35;;
61572;SDS011;47465;43.094;12.434;2023-10-09T08:41:24;16.58;;;7.15;;
61572;SDS011;47465;43.094;12.434;2023-10-09T08:43:55;14.43;;;6.25;;
61572;SDS011;47465;43.094;12.434;2023-10-09T08:46:23;12.10;;;6.20;;
61572;SDS011;47465;43.094;12.434;2023-10-09T08:48:52;12.00;;;5.95;;
61572;SDS011;47465;43.094;12.434;2023-10-09T08:51:19;14.88;;;6.05;;
61572;SDS011;47465;43.094;12.434;2023-10-09T08:53:46;10.23;;;5.90;;
61572;SDS011;47465;43.094;12.434;2023-10-09T08:56:13;10.98;;;5.63;;
61572;SDS011;47465;43.094;12.434;2023-10-09T08:58:47;11.85;;;6.78;;
61572;SDS011;47465;43.094;12.434;2023-10-09T09:01:16;12.80;;;5.70;;
61572;SDS011;47465;43.094;12.434;2023-10-09T09:03:45;10.68;;;6.20;;
61572;SDS011;47465;43.094;12.434;2023-10-09T09:06:10;14.60;;;5.85;;
61572;SDS011;47465;43.094;12.434;2023-10-09T09:08:37;11.88;;;6.25;;
61572;SDS011;47465;43.094;12.434;2023-10-09T09:11:03;11.85;;;6.03;;
61572;SDS011;47465;43.094;12.434;2023-10-09T09:13:40;11.93;;;6.57;;
61572;SDS011;47465;43.094;12.434;2023-10-09T09:16:13;16.70;;;7.72;;
61572;SDS011;47465;43.094;12.434;2023-10-09T09:18:48;15.13;;;6.28;;
61572;SDS011;47465;43.094;12.434;2023-10-09T09:21:17;11.68;;;7.03;;
61572;SDS011;47465;43.094;12.434;2023-10-09T09:23:52;15.02;;;5.95;;
61572;SDS011;47465;43.094;12.434;2023-10-09T09:26:33;13.27;;;6.22;;
61572;SDS011;47465;43.094;12.434;2023-10-09T09:29:04;13.10;;;6.22;;
61572;SDS011;47465;43.094;12.434;2023-10-09T09:31:31;16.52;;;6.88;;
61572;SDS011;47465;43.094;12.434;2023-10-09T09:34:03;16.65;;;6.85;;
61572;SDS011;47465;43.094;12.434;2023-10-09T09:36:37;15.38;;;7.22;;
61572;SDS011;47465;43.094;12.434;2023-10-09T09:39:19;13.15;;;6.05;;
61572;SDS011;47465;43.094;12.434;2023-10-09T09:41:54;12.18;;;7.22;;
61572;SDS011;47465;43.094;12.434;2023-10-09T09:44:24;12.30;;;7.15;;
61572;SDS011;47465;43.094;12.434;2023-10-09T09:46:56;14.07;;;7.25;;
61572;SDS011;47465;43.094;12.434;2023-10-09T09:49:25;15.30;;;7.25;;
61572;SDS011;47465;43.094;12.434;2023-10-09T09:51:57;16.40;;;7.03;;
61572;SDS011;47465;43.094;12.434;2023-10-09T09:54:26;15.30;;;6.72;;
61572;SDS011;47465;43.094;12.434;2023-10-09T09:56:53;14.60;;;7.38;;
61572;SDS011;47465;43.094;12.434;2023-10-09T09:59:21;14.95;;;6.88;;
61572;SDS011;47465;43.094;12.434;2023-10-09T10:01:56;14.13;;;6.93;;
61572;SDS011;47465;43.094;12.434;2023-10-09T10:04:31;14.82;;;8.20;;
61572;SDS011;47465;43.094;12.434;2023-10-09T10:07:00;17.92;;;8.52;;
61572;SDS011;47465;43.094;12.434;2023-10-09T10:09:34;14.50;;;7.80;;
61572;SDS011;47465;43.094;12.434;2023-10-09T10:12:04;15.18;;;8.23;;
61572;SDS011;47465;43.094;12.434;2023-10-09T10:17:24;18.15;;;7.10;;
61572;SDS011;47465;43.094;12.434;2023-10-09T10:19:59;17.48;;;7.03;;
61572;SDS011;47465;43.094;12.434;2023-10-09T10:23:15;13.10;;;7.05;;
61572;SDS011;47465;43.094;12.434;2023-10-09T10:25:44;13.20;;;6.43;;
61572;SDS011;47465;43.094;12.434;2023-10-09T10:28:20;15.20;;;6.78;;
61572;SDS011;47465;43.094;12.434;2023-10-09T10:31:19;15.43;;;7.10;;
61572;SDS011;47465;43.094;12.434;2023-10-09T10:34:11;15.45;;;6.95;;
61572;SDS011;47465;43.094;12.434;2023-10-09T10:36:37;14.48;;;6.55;;
61572;SDS011;47465;43.094;12.434;2023-10-09T10:39:07;13.73;;;7.22;;
61572;SDS011;47465;43.094;12.434;2023-10-09T10:41:52;12.30;;;5.93;;
61572;SDS011;47465;43.094;12.434;2023-10-09T10:44:28;14.85;;;6.63;;
61572;SDS011;47465;43.094;12.434;2023-10-09T10:47:04;14.75;;;6.47;;
61572;SDS011;47465;43.094;12.434;2023-10-09T10:49:42;13.57;;;5.80;;
61572;SDS011;47465;43.094;12.434;2023-10-09T10:52:08;13.93;;;6.25;;
61572;SDS011;47465;43.094;12.434;2023-10-09T10:54:45;13.18;;;6.07;;
61572;SDS011;47465;43.094;12.434;2023-10-09T10:57:15;15.20;;;5.80;;
61572;SDS011;47465;43.094;12.434;2023-10-09T10:59:45;15.88;;;5.80;;
61572;SDS011;47465;43.094;12.434;2023-10-09T11:02:12;12.82;;;6.28;;
61572;SDS011;47465;43.094;12.434;2023-10-09T11:04:56;10.18;;;6.97;;
61572;SDS011;47465;43.094;12.434;2023-10-09T11:07:39;11.73;;;5.78;;
61572;SDS011;47465;43.094;12.434;2023-10-09T11:10:06;13.90;;;7.18;;
61572;SDS011;47465;43.094;12.434;2023-10-09T11:12:50;10.30;;;5.47;;
61572;SDS011;47465;43.094;12.434;2023-10-09T11:15:43;14.98;;;6.10;;
61572;SDS011;47465;43.094;12.434;2023-10-09T11:18:10;13.50;;;6.13;;
61572;SDS011;47465;43.094;12.434;2023-10-09T11:20:44;14.95;;;6.15;;
61572;SDS011;47465;43.094;12.434;2023-10-09T11:23:23;10.95;;;5.65;;
61572;SDS011;47465;43.094;12.434;2023-10-09T11:26:04;9.15;;;5.63;;
61572;SDS011;47465;43.094;12.434;2023-10-09T11:29:05;11.65;;;6.20;;
61572;SDS011;47465;43.094;12.434;2023-10-09T11:31:40;10.25;;;6.20;;
61572;SDS011;47465;43.094;12.434;2023-10-09T11:34:17;13.52;;;6.18;;
61572;SDS011;47465;43.094;12.434;2023-10-09T11:36:54;13.13;;;6.38;;
61572;SDS011;47465;43.094;12.434;2023-10-09T11:39:26;10.35;;;5.43;;
61572;SDS011;47465;43.094;12.434;2023-10-09T11:42:00;12.63;;;5.82;;
61572;SDS011;47465;43.094;12.434;2023-10-09T11:44:36;12.38;;;5.75;;
61572;SDS011;47465;43.094;12.434;2023-10-09T11:47:07;10.80;;;6.13;;
61572;SDS011;47465;43.094;12.434;2023-10-09T11:50:06;10.20;;;5.53;;
61572;SDS011;47465;43.094;12.434;2023-10-09T11:52:55;9.70;;;5.30;;
61572;SDS011;47465;43.094;12.434;2023-10-09T11:55:34;12.25;;;5.25;;
61572;SDS011;47465;43.094;12.434;2023-10-09T11:58:01;8.25;;;4.57;;
61572;SDS011;47465;43.094;12.434;2023-10-09T12:00:27;9.70;;;5.53;;
61572;SDS011;47465;43.094;12.434;2023-10-09T12:02:54;13.13;;;5.18;;
61572;SDS011;47465;43.094;12.434;2023-10-09T12:05:22;10.00;;;4.75;;
61572;SDS011;47465;43.094;12.434;2023-10-09T12:07:49;11.40;;;5.40;;
61572;SDS011;47465;43.094;12.434;2023-10-09T12:10:20;9.13;;;5.10;;
61572;SDS011;47465;43.094;12.434;2023-10-09T12:12:50;13.98;;;5.43;;
61572;SDS011;47465;43.094;12.434;2023-10-09T12:15:16;13.63;;;5.32;;
61572;SDS011;47465;43.094;12.434;2023-10-09T12:17:43;12.52;;;4.75;;
61572;SDS011;47465;43.094;12.434;2023-10-09T12:20:09;9.05;;;4.68;;
61572;SDS011;47465;43.094;12.434;2023-10-09T12:22:56;9.45;;;4.82;;
61572;SDS011;47465;43.094;12.434;2023-10-09T12:25:23;7.63;;;3.85;;
61572;SDS011;47465;43.094;12.434;2023-10-09T12:27:48;11.10;;;4.15;;
61572;SDS011;47465;43.094;12.434;2023-10-09T12:30:14;11.25;;;4.47;;
61572;SDS011;47465;43.094;12.434;2023-10-09T12:32:40;11.00;;;5.63;;
61572;SDS011;47465;43.094;12.434;2023-10-09T12:35:07;9.63;;;5.18;;
61572;SDS011;47465;43.094;12.434;2023-10-09T12:37:42;8.57;;;4.40;;
61572;SDS011;47465;43.094;12.434;2023-10-09T12:40:10;13.07;;;4.82;;
61572;SDS011;47465;43.094;12.434;2023-10-09T12:42:36;10.27;;;5.20;;
61572;SDS011;47465;43.094;12.434;2023-10-09T12:45:02;6.80;;;4.20;;
61572;SDS011;47465;43.094;12.434;2023-10-09T12:47:33;10.30;;;5.10;;
61572;SDS011;47465;43.094;12.434;2023-10-09T12:49:59;8.30;;;4.47;;
61572;SDS011;47465;43.094;12.434;2023-10-09T12:52:25;11.68;;;5.10;;
61572;SDS011;47465;43.094;12.434;2023-10-09T12:54:54;9.50;;;4.35;;
61572;SDS011;47465;43.094;12.434;2023-10-09T12:57:22;11.20;;;4.50;;
61572;SDS011;47465;43.094;12.434;2023-10-09T12:59:49;10.93;;;4.43;;
61572;SDS011;47465;43.094;12.434;2023-10-09T13:02:15;9.88;;;3.97;;
61572;SDS011;47465;43.094;12.434;2023-10-09T13:05:15;7.28;;;3.95;;
61572;SDS011;47465;43.094;12.434;2023-10-09T13:07:51;10.13;;;3.97;;
61572;SDS011;47465;43.094;12.434;2023-10-09T13:10:17;8.45;;;3.50;;
61572;SDS011;47465;43.094;12.434;2023-10-09T13:12:42;7.95;;;3.30;;
61572;SDS011;47465;43.094;12.434;2023-10-09T13:15:09;9.55;;;2.80;;
61572;SDS011;47465;43.094;12.434;2023-10-09T13:17:35;11.38;;;3.50;;
61572;SDS011;47465;43.094;12.434;2023-10-09T13:20:01;7.60;;;3.90;;
61572;SDS011;47465;43.094;12.434;2023-10-09T13:22:30;7.82;;;3.75;;
61572;SDS011;47465;43.094;12.434;2023-10-09T13:24:56;10.90;;;3.22;;
61572;SDS011;47465;43.094;12.434;2023-10-09T13:27:28;9.85;;;3.83;;
61572;SDS011;47465;43.094;12.434;2023-10-09T13:29:59;8.32;;;4.32;;
61572;SDS011;47465;43.094;12.434;2023-10-09T13:32:31;12.38;;;3.92;;
61572;SDS011;47465;43.094;12.434;2023-10-09T13:35:01;9.88;;;3.65;;
61572;SDS011;47465;43.094;12.434;2023-10-09T13:37:30;8.45;;;3.65;;
61572;SDS011;47465;43.094;12.434;2023-10-09T13:40:01;8.55;;;3.53;;
61572;SDS011;47465;43.094;12.434;2023-10-09T13:42:34;12.27;;;4.03;;
61572;SDS011;47465;43.094;12.434;2023-10-09T13:45:01;11.27;;;5.20;;
61572;SDS011;47465;43.094;12.434;2023-10-09T13:47:40;8.65;;;4.68;;
61572;SDS011;47465;43.094;12.434;2023-10-09T13:50:09;10.90;;;4.03;;
61572;SDS011;47465;43.094;12.434;2023-10-09T13:52:37;6.85;;;3.25;;
61572;SDS011;47465;43.094;12.434;2023-10-09T13:55:05;8.93;;;3.92;;
61572;SDS011;47465;43.094;12.434;2023-10-09T13:57:40;8.15;;;3.53;;
61572;SDS011;47465;43.094;12.434;2023-10-09T14:00:08;7.75;;;3.05;;
61572;SDS011;47465;43.094;12.434;2023-10-09T14:02:36;11.00;;;3.25;;
61572;SDS011;47465;43.094;12.434;2023-10-09T14:05:02;9.50;;;3.85;;
61572;SDS011;47465;43.094;12.434;2023-10-09T14:07:29;7.38;;;3.33;;
61572;SDS011;47465;43.094;12.434;2023-10-09T14:09:57;7.75;;;3.40;;
61572;SDS011;47465;43.094;12.434;2023-10-09T14:12:32;12.07;;;3.38;;
61572;SDS011;47465;43.094;12.434;2023-10-09T14:14:59;8.57;;;3.75;;
61572;SDS011;47465;43.094;12.434;2023-10-09T14:17:28;14.32;;;4.07;;
61572;SDS011;47465;43.094;12.434;2023-10-09T14:19:54;10.02;;;4.00;;
61572;SDS011;47465;43.094;12.434;2023-10-09T14:22:26;12.02;;;3.90;;
61572;SDS011;47465;43.094;12.434;2023-10-09T14:24:52;8.27;;;4.00;;
61572;SDS011;47465;43.094;12.434;2023-10-09T14:27:22;11.48;;;3.65;;
61572;SDS011;47465;43.094;12.434;2023-10-09T14:29:52;8.48;;;3.47;;
61572;SDS011;47465;43.094;12.434;2023-10-09T14:32:22;6.95;;;3.40;;
61572;SDS011;47465;43.094;12.434;2023-10-09T14:34:59;13.52;;;3.78;;
61572;SDS011;47465;43.094;12.434;2023-10-09T14:37:26;12.65;;;3.80;;
61572;SDS011;47465;43.094;12.434;2023-10-09T14:39:52;8.63;;;3.97;;
61572;SDS011;47465;43.094;12.434;2023-10-09T14:42:18;9.50;;;3.50;;
61572;SDS011;47465;43.094;12.434;2023-10-09T14:44:47;13.27;;;3.70;;
61572;SDS011;47465;43.094;12.434;2023-10-09T14:47:13;14.05;;;4.15;;
61572;SDS011;47465;43.094;12.434;2023-10-09T14:49:39;10.32;;;3.15;;
61572;SDS011;47465;43.094;12.434;2023-10-09T14:52:09;11.63;;;2.95;;
61572;SDS011;47465;43.094;12.434;2023-10-09T14:54:35;8.35;;;2.88;;
61572;SDS011;47465;43.094;12.434;2023-10-09T14:57:01;8.38;;;2.95;;
61572;SDS011;47465;43.094;12.434;2023-10-09T14:59:31;6.82;;;3.58;;
61572;SDS011;47465;43.094;12.434;2023-10-09T15:01:58;10.20;;;2.65;;
61572;SDS011;47465;43.094;12.434;2023-10-09T15:04:24;7.70;;;2.90;;
61572;SDS011;47465;43.094;12.434;2023-10-09T15:06:50;9.98;;;3.05;;
61572;SDS011;47465;43.094;12.434;2023-10-09T15:09:16;10.77;;;3.45;;
61572;SDS011;47465;43.094;12.434;2023-10-09T15:11:53;6.50;;;2.72;;
61572;SDS011;47465;43.094;12.434;2023-10-09T15:14:20;6.70;;;2.95;;
61572;SDS011;47465;43.094;12.434;2023-10-09T15:16:45;10.82;;;2.90;;
61572;SDS011;47465;43.094;12.434;2023-10-09T15:19:13;15.82;;;2.80;;
61572;SDS011;47465;43.094;12.434;2023-10-09T15:21:42;8.80;;;2.58;;